Time;durP1;ratioP1;P1;durP2;ratioP2;P2;SDS_P1;SDS_P2;PMS_P1;PMS_P2;Temp;Humidity;BMP_temperature;BMP_pressure;BME280_temperature;BME280_humidity;BME280_pressure;Samples;Min_cycle;Max_cycle;Signal;HPM_P1;HPM_P2
2023/06/01 00:01:12;;;;;;;2.30;1.02;;;21.60;69.20;;;;;;7401385;19;19925;-62
2023/06/01 00:03:41;;;;;;;3.33;0.82;;;21.50;69.10;;;;;;7400017;19;19918;-61
2023/06/01 00:06:10;;;;;;;1.85;0.80;;;21.60;69.20;;;;;;7399141;19;19922;-61
2023/06/01 00:08:39;;;;;;;4.03;1.23;;;21.50;69.10;;;;;;7400037;19;19949;-61
2023/06/01 00:11:08;;;;;;;2.53;0.77;;;21.60;69.20;;;;;;7403160;19;19962;-61
2023/06/01 00:13:37;;;;;;;2.38;0.75;;;21.50;69.20;;;;;;7405670;19;19927;-61
2023/06/01 00:16:09;;;;;;;2.92;0.98;;;21.50;69.10;;;;;;7407006;19;19950;-61
2023/06/01 00:18:38;;;;;;;4.15;1.10;;;21.50;69.20;;;;;;7387458;19;20059;-61
2023/06/01 00:21:07;;;;;;;2.80;1.05;;;21.50;69.20;;;;;;7404016;19;20014;-61
2023/06/01 00:23:36;;;;;;;2.38;0.73;;;21.50;69.10;;;;;;7406290;19;19939;-61
2023/06/01 00:26:05;;;;;;;2.13;0.90;;;21.50;69.10;;;;;;7406972;19;19919;-61
2023/06/01 00:28:35;;;;;;;2.80;1.15;;;21.50;69.20;;;;;;7406278;19;19939;-61
2023/06/01 00:31:04;;;;;;;2.72;0.70;;;21.40;69.10;;;;;;7401818;19;19914;-61
2023/06/01 00:33:35;;;;;;;1.95;0.85;;;21.40;69.10;;;;;;7406242;19;19926;-61
2023/06/01 00:36:06;;;;;;;1.90;0.80;;;21.40;69.10;;;;;;7406373;19;19931;-61
2023/06/01 00:38:35;;;;;;;3.13;0.90;;;21.40;69.10;;;;;;7403753;19;19923;-60
2023/06/01 00:41:04;;;;;;;2.72;1.17;;;21.40;69.10;;;;;;7406258;19;19925;-60
2023/06/01 00:43:33;;;;;;;3.40;0.90;;;21.40;69.10;;;;;;7405805;19;19951;-61
2023/06/01 00:46:02;;;;;;;2.25;0.95;;;21.40;69.10;;;;;;7405997;19;19930;-61
2023/06/01 00:48:31;;;;;;;3.15;1.13;;;21.40;69.10;;;;;;7405212;19;19952;-61
2023/06/01 00:51:03;;;;;;;2.22;0.75;;;21.40;69.10;;;;;;7405706;19;20005;-61
2023/06/01 00:53:33;;;;;;;3.17;0.95;;;21.30;69.10;;;;;;7406153;19;19930;-61
2023/06/01 00:56:02;;;;;;;2.92;0.90;;;21.30;69.10;;;;;;7405384;19;20741;-61
2023/06/01 00:58:31;;;;;;;3.08;0.95;;;21.40;69.10;;;;;;7401925;19;19918;-60
2023/06/01 01:01:01;;;;;;;2.10;0.80;;;21.30;69.10;;;;;;7404988;19;19982;-61
2023/06/01 01:03:31;;;;;;;2.70;0.82;;;21.30;69.10;;;;;;7405090;19;19970;-61
2023/06/01 01:06:13;;;;;;;2.15;0.63;;;21.30;69.20;;;;;;7404034;19;19918;-62
2023/06/01 01:08:51;;;;;;;2.72;1.00;;;21.30;69.20;;;;;;7405102;19;19974;-60
2023/06/01 01:11:26;;;;;;;2.38;0.75;;;21.30;69.20;;;;;;7404406;19;19982;-61
2023/06/01 01:14:01;;;;;;;3.00;0.70;;;21.30;69.20;;;;;;7406051;19;19918;-61
2023/06/01 01:16:33;;;;;;;2.20;0.70;;;21.30;69.20;;;;;;7404284;19;20252;-61
2023/06/01 01:19:16;;;;;;;1.73;0.63;;;21.20;69.20;;;;;;7403093;19;20354;-61
2023/06/01 01:22:01;;;;;;;2.30;0.88;;;21.30;69.20;;;;;;7403133;19;19931;-61
2023/06/01 01:24:45;;;;;;;1.90;0.82;;;21.20;69.20;;;;;;7404499;19;19922;-62
2023/06/01 01:27:27;;;;;;;2.00;0.65;;;21.20;69.10;;;;;;7406460;19;19957;-60
2023/06/01 01:30:05;;;;;;;2.25;0.80;;;21.30;69.20;;;;;;7404228;19;19922;-61
2023/06/01 01:32:35;;;;;;;2.28;0.75;;;21.20;69.10;;;;;;7404666;19;20016;-60
2023/06/01 01:35:05;;;;;;;1.83;0.47;;;21.20;69.20;;;;;;7404455;19;19929;-61
2023/06/01 01:37:35;;;;;;;2.22;0.70;;;21.20;69.10;;;;;;7403492;19;19986;-61
2023/06/01 01:40:05;;;;;;;2.25;0.93;;;21.20;69.20;;;;;;7404402;19;19934;-60
2023/06/01 01:42:34;;;;;;;2.50;0.75;;;21.20;69.20;;;;;;7402339;19;19946;-61
2023/06/01 01:45:06;;;;;;;2.15;0.60;;;21.10;69.20;;;;;;7405289;19;19918;-62
2023/06/01 01:47:43;;;;;;;2.13;0.90;;;21.20;69.20;;;;;;7401389;19;19931;-61
2023/06/01 01:50:15;;;;;;;2.83;0.88;;;21.20;69.30;;;;;;7403000;19;19929;-58
2023/06/01 01:52:45;;;;;;;2.72;1.05;;;21.10;69.20;;;;;;7404059;19;19922;-62
2023/06/01 01:55:18;;;;;;;2.22;0.70;;;21.10;69.30;;;;;;7401452;19;20300;-61
2023/06/01 01:57:48;;;;;;;3.85;0.73;;;21.10;69.30;;;;;;7401288;19;19922;-61
2023/06/01 02:00:20;;;;;;;2.13;0.60;;;21.10;69.30;;;;;;7403357;19;19933;-61
2023/06/01 02:02:50;;;;;;;2.67;0.93;;;21.10;69.30;;;;;;7404108;19;19973;-61
2023/06/01 02:05:18;;;;;;;1.77;0.63;;;21.10;69.40;;;;;;7405216;19;20261;-61
2023/06/01 02:07:48;;;;;;;2.45;0.77;;;21.10;69.40;;;;;;7404382;19;19943;-61
2023/06/01 02:10:17;;;;;;;2.67;0.90;;;21.10;69.40;;;;;;7402679;19;19930;-61
2023/06/01 02:12:46;;;;;;;1.98;0.52;;;21.10;69.30;;;;;;7401659;19;19934;-61
2023/06/01 02:15:15;;;;;;;2.15;0.80;;;21.10;69.40;;;;;;7404496;19;20376;-60
2023/06/01 02:17:46;;;;;;;2.35;0.73;;;21.10;69.30;;;;;;7402567;19;19930;-61
2023/06/01 02:20:15;;;;;;;2.50;0.70;;;21.10;69.30;;;;;;7399593;19;20636;-61
2023/06/01 02:22:44;;;;;;;2.40;0.95;;;21.00;69.20;;;;;;7403797;19;21060;-61
2023/06/01 02:25:13;;;;;;;2.47;0.68;;;21.10;69.20;;;;;;7403126;19;19929;-61
2023/06/01 02:27:42;;;;;;;1.95;0.43;;;21.10;69.20;;;;;;7402650;19;19992;-61
2023/06/01 02:30:12;;;;;;;2.17;0.90;;;21.00;69.20;;;;;;7402788;19;19943;-61
2023/06/01 02:32:44;;;;;;;2.30;0.80;;;21.00;69.20;;;;;;7403345;19;20366;-60
2023/06/01 02:35:16;;;;;;;3.25;1.33;;;21.00;69.20;;;;;;7403757;19;19926;-61
2023/06/01 02:37:46;;;;;;;2.35;0.65;;;21.00;69.20;;;;;;7403132;19;19935;-61
2023/06/01 02:40:15;;;;;;;2.53;0.70;;;21.00;69.20;;;;;;7402437;19;20645;-61
2023/06/01 02:42:44;;;;;;;2.78;0.75;;;21.00;69.30;;;;;;7402909;19;20288;-60
2023/06/01 02:45:13;;;;;;;2.78;1.00;;;21.00;69.30;;;;;;7403184;19;19926;-61
2023/06/01 02:47:43;;;;;;;1.80;0.60;;;21.00;69.40;;;;;;7403618;19;19998;-61
2023/06/01 02:50:15;;;;;;;2.60;0.77;;;21.00;69.30;;;;;;7400788;19;19986;-60
2023/06/01 02:52:44;;;;;;;3.03;0.82;;;20.90;69.30;;;;;;7399050;19;19946;-61
2023/06/01 02:55:13;;;;;;;2.03;0.80;;;21.00;69.40;;;;;;7401971;19;19990;-61
2023/06/01 02:57:42;;;;;;;1.88;0.65;;;20.90;69.30;;;;;;7399992;19;19950;-62
2023/06/01 03:00:15;;;;;;;2.15;0.70;;;20.90;69.30;;;;;;7401819;19;19932;-61
2023/06/01 03:02:44;;;;;;;3.03;0.85;;;20.90;69.40;;;;;;7399688;19;20355;-61
2023/06/01 03:05:17;;;;;;;2.10;0.73;;;20.90;69.40;;;;;;7400417;19;20066;-62
2023/06/01 03:07:46;;;;;;;2.35;0.80;;;20.90;69.40;;;;;;7401672;19;19922;-61
2023/06/01 03:10:16;;;;;;;1.73;0.55;;;20.90;69.40;;;;;;7402617;19;19938;-61
2023/06/01 03:12:45;;;;;;;2.53;0.90;;;20.90;69.40;;;;;;7401858;19;19947;-61
2023/06/01 03:15:15;;;;;;;3.25;0.70;;;20.90;69.40;;;;;;7402025;19;19954;-61
2023/06/01 03:17:44;;;;;;;2.55;0.85;;;20.90;69.30;;;;;;7401667;19;20011;-61
2023/06/01 03:20:17;;;;;;;3.08;0.82;;;20.90;69.30;;;;;;7401375;19;19990;-61
2023/06/01 03:22:46;;;;;;;1.95;0.50;;;20.90;69.20;;;;;;7397774;19;20010;-61
2023/06/01 03:25:16;;;;;;;2.00;0.80;;;20.90;69.20;;;;;;7402576;19;19974;-61
2023/06/01 03:27:45;;;;;;;2.13;0.60;;;20.90;69.30;;;;;;7400665;19;20301;-61
2023/06/01 03:30:15;;;;;;;2.08;0.68;;;20.90;69.20;;;;;;7401586;19;19923;-61
2023/06/01 03:32:45;;;;;;;1.80;0.68;;;20.90;69.30;;;;;;7400244;19;19936;-61
2023/06/01 03:35:17;;;;;;;1.88;0.60;;;20.90;69.20;;;;;;7400092;19;19926;-61
2023/06/01 03:37:48;;;;;;;1.67;0.63;;;20.90;69.20;;;;;;7398847;19;19952;-61
2023/06/01 03:40:17;;;;;;;2.75;0.90;;;20.80;69.30;;;;;;7399236;19;19925;-61
2023/06/01 03:42:48;;;;;;;2.90;0.90;;;20.80;69.30;;;;;;7401193;19;20344;-61
2023/06/01 03:45:18;;;;;;;2.35;0.63;;;20.80;69.30;;;;;;7399221;19;20315;-61
2023/06/01 03:47:47;;;;;;;1.95;0.80;;;20.80;69.30;;;;;;7401122;19;19923;-61
2023/06/01 03:50:19;;;;;;;2.50;0.70;;;20.80;69.40;;;;;;7399403;19;19958;-61
2023/06/01 03:52:48;;;;;;;2.22;0.70;;;20.80;69.40;;;;;;7398866;19;19934;-61
2023/06/01 03:55:17;;;;;;;2.70;0.75;;;20.80;69.40;;;;;;7401180;19;19956;-61
2023/06/01 03:57:46;;;;;;;1.48;0.60;;;20.80;69.40;;;;;;7397702;19;19923;-61
2023/06/01 04:00:22;;;;;;;2.08;0.65;;;20.80;69.40;;;;;;7400292;19;19922;-61
2023/06/01 04:02:54;;;;;;;3.03;0.75;;;20.80;69.40;;;;;;7400400;19;19932;-61
2023/06/01 04:05:27;;;;;;;3.00;0.52;;;20.70;69.30;;;;;;7400438;19;20006;-61
2023/06/01 04:07:57;;;;;;;1.58;0.63;;;20.70;69.30;;;;;;7399334;19;19922;-61
2023/06/01 04:10:26;;;;;;;2.72;0.70;;;20.70;69.30;;;;;;7399099;19;19927;-61
2023/06/01 04:12:55;;;;;;;3.17;0.98;;;20.80;69.40;;;;;;7398289;19;19919;-62
2023/06/01 04:15:25;;;;;;;3.78;0.77;;;20.80;69.40;;;;;;7398331;19;19914;-61
2023/06/01 04:17:54;;;;;;;3.13;0.82;;;20.80;69.30;;;;;;7400059;19;19926;-61
2023/06/01 04:20:26;;;;;;;2.53;0.75;;;20.80;69.30;;;;;;7396411;19;19922;-61
2023/06/01 04:22:55;;;;;;;1.65;0.57;;;20.80;69.30;;;;;;7399877;19;19928;-61
2023/06/01 04:25:24;;;;;;;4.22;0.90;;;20.80;69.30;;;;;;7399105;19;19930;-62
2023/06/01 04:27:54;;;;;;;1.83;0.60;;;20.80;69.20;;;;;;7400135;19;19937;-62
2023/06/01 04:30:23;;;;;;;2.95;0.88;;;20.80;69.20;;;;;;7397389;19;19919;-61
2023/06/01 04:32:53;;;;;;;2.15;0.82;;;20.80;69.20;;;;;;7399435;19;19926;-61
2023/06/01 04:35:22;;;;;;;2.08;0.77;;;20.80;69.20;;;;;;7399725;19;19926;-62
2023/06/01 04:37:54;;;;;;;1.52;0.60;;;20.70;69.30;;;;;;7399238;19;19926;-62
2023/06/01 04:40:23;;;;;;;2.10;0.60;;;20.70;69.20;;;;;;7398603;19;19929;-61
2023/06/01 04:42:55;;;;;;;2.58;0.77;;;20.70;69.30;;;;;;7397730;19;19942;-61
2023/06/01 04:45:25;;;;;;;2.00;0.80;;;20.70;69.30;;;;;;7396713;19;19966;-61
2023/06/01 04:47:57;;;;;;;2.88;0.60;;;20.70;69.30;;;;;;7398495;19;20274;-61
2023/06/01 04:50:28;;;;;;;1.98;0.60;;;20.70;69.40;;;;;;7398238;19;19923;-61
2023/06/01 04:53:00;;;;;;;2.15;0.60;;;20.60;69.30;;;;;;7400529;19;19935;-63
2023/06/01 04:55:30;;;;;;;1.98;0.73;;;20.70;69.40;;;;;;7400216;19;19923;-61
2023/06/01 04:57:59;;;;;;;2.53;1.02;;;20.70;69.40;;;;;;7399271;19;19939;-62
2023/06/01 05:00:28;;;;;;;;;;;20.70;69.40;;;;;;7407605;19;19982;-62
2023/06/01 05:02:57;;;;;;;2.63;0.63;;;20.60;69.40;;;;;;7404761;19;19926;-61
2023/06/01 05:05:27;;;;;;;1.50;0.47;;;20.60;69.40;;;;;;7406181;19;19926;-61
2023/06/01 05:07:56;;;;;;;1.83;0.70;;;20.60;70.00;;;;;;7403379;19;19957;-61
2023/06/01 05:10:27;;;;;;;2.25;0.90;;;20.60;69.40;;;;;;7405405;19;19933;-61
2023/06/01 05:12:56;;;;;;;2.90;0.88;;;20.70;69.50;;;;;;7402642;19;20316;-62
2023/06/01 05:15:27;;;;;;;1.92;0.75;;;20.60;69.40;;;;;;7403974;19;19986;-62
2023/06/01 05:17:57;;;;;;;2.53;0.60;;;20.70;69.40;;;;;;7399523;19;19919;-61
2023/06/01 05:20:26;;;;;;;2.40;0.55;;;20.70;69.40;;;;;;7398982;19;19960;-61
2023/06/01 05:22:55;;;;;;;2.15;0.60;;;20.70;69.40;;;;;;7402821;19;19926;-61
2023/06/01 05:25:27;;;;;;;1.73;0.65;;;20.70;69.40;;;;;;7404721;19;19915;-61
2023/06/01 05:27:56;;;;;;;1.50;0.40;;;20.70;69.30;;;;;;7399403;19;19986;-61
2023/06/01 05:30:25;;;;;;;2.65;1.00;;;20.70;69.30;;;;;;7403655;19;19934;-61
2023/06/01 05:32:54;;;;;;;2.55;0.60;;;20.60;69.20;;;;;;7403520;19;19934;-61
2023/06/01 05:35:23;;;;;;;;;;;20.60;69.20;;;;;;7405491;19;19925;-61
2023/06/01 05:37:53;;;;;;;1.70;0.63;;;20.70;69.30;;;;;;7403439;19;19915;-61
2023/06/01 05:40:22;;;;;;;1.35;0.50;;;20.60;69.20;;;;;;7402817;19;19923;-61
2023/06/01 05:42:54;;;;;;;1.85;0.73;;;20.70;69.30;;;;;;7399096;19;19919;-61
2023/06/01 05:45:23;;;;;;;3.17;0.50;;;20.70;69.20;;;;;;7404068;19;19990;-61
2023/06/01 05:47:52;;;;;;;2.03;0.60;;;20.70;69.20;;;;;;7403887;19;20333;-61
2023/06/01 05:50:21;;;;;;;2.75;1.08;;;20.60;69.10;;;;;;7404575;19;20523;-62
2023/06/01 05:52:50;;;;;;;2.50;0.60;;;20.70;69.20;;;;;;7401386;19;19990;-61
2023/06/01 05:55:19;;;;;;;2.90;0.77;;;20.70;69.30;;;;;;7405008;19;19939;-60
2023/06/01 05:57:48;;;;;;;1.73;0.70;;;20.70;69.30;;;;;;7404762;19;19927;-62
2023/06/01 06:00:21;;;;;;;2.38;0.70;;;20.70;69.30;;;;;;7399879;19;19926;-61
2023/06/01 06:02:50;;;;;;;2.30;0.50;;;20.60;69.30;;;;;;7402172;19;19943;-61
2023/06/01 06:05:19;;;;;;;1.83;0.55;;;20.60;69.30;;;;;;7401892;19;20347;-62
2023/06/01 06:07:48;;;;;;;2.72;0.60;;;20.60;69.50;;;;;;7401838;19;19923;-61
2023/06/01 06:10:17;;;;;;;2.25;0.85;;;20.70;69.70;;;;;;7402741;19;19986;-62
2023/06/01 06:12:46;;;;;;;1.45;0.50;;;20.70;69.60;;;;;;7401371;19;19978;-61
2023/06/01 06:15:15;;;;;;;1.90;0.80;;;20.70;69.50;;;;;;7396358;19;19922;-61
2023/06/01 06:17:47;;;;;;;2.33;0.47;;;20.70;69.40;;;;;;7401729;19;20339;-61
2023/06/01 06:20:16;;;;;;;2.28;0.60;;;20.70;70.10;;;;;;7396068;19;19918;-61
2023/06/01 06:22:45;;;;;;;3.15;0.52;;;20.70;70.00;;;;;;7395031;19;19965;-61
2023/06/01 06:25:14;;;;;;;2.58;0.63;;;20.70;69.70;;;;;;7400706;19;20205;-61
2023/06/01 06:27:43;;;;;;;3.90;0.90;;;20.80;69.70;;;;;;7399762;19;19939;-61
2023/06/01 06:30:13;;;;;;;2.20;0.40;;;20.80;69.60;;;;;;7401644;19;20337;-61
2023/06/01 06:32:42;;;;;;;2.15;0.60;;;20.70;69.50;;;;;;7401586;19;19926;-60
2023/06/01 06:35:14;;;;;;;2.25;0.52;;;20.70;69.50;;;;;;7401814;19;19930;-62
2023/06/01 06:37:44;;;;;;;1.90;0.75;;;20.70;69.50;;;;;;7400896;19;19925;-61
2023/06/01 06:40:14;;;;;;;2.38;1.00;;;20.70;69.50;;;;;;7400082;19;19910;-61
2023/06/01 06:42:43;;;;;;;2.20;0.75;;;20.70;69.60;;;;;;7399507;19;20348;-61
2023/06/01 06:45:13;;;;;;;2.25;0.80;;;20.70;69.60;;;;;;7400464;19;20380;-61
2023/06/01 06:47:45;;;;;;;1.70;0.50;;;20.70;69.60;;;;;;7402173;19;19950;-61
2023/06/01 06:50:17;;;;;;;1.80;0.50;;;20.70;69.60;;;;;;7400555;19;19926;-60
2023/06/01 06:52:46;;;;;;;1.38;0.50;;;20.70;69.60;;;;;;7400567;19;20360;-61
2023/06/01 06:55:15;;;;;;;3.33;0.55;;;20.70;69.60;;;;;;7400751;19;19929;-61
2023/06/01 06:57:44;;;;;;;2.10;0.70;;;20.70;69.90;;;;;;7402520;19;19933;-61
2023/06/01 07:00:15;;;;;;;1.90;0.90;;;20.70;69.60;;;;;;7400950;19;19930;-61
2023/06/01 07:02:45;;;;;;;2.13;0.60;;;20.70;69.60;;;;;;7401335;19;19933;-61
2023/06/01 07:05:16;;;;;;;1.83;0.50;;;20.70;69.60;;;;;;7398611;19;19926;-61
2023/06/01 07:07:46;;;;;;;1.77;0.60;;;20.70;69.60;;;;;;7401408;19;19943;-61
2023/06/01 07:10:16;;;;;;;1.75;0.50;;;20.70;69.60;;;;;;7399978;19;19919;-60
2023/06/01 07:12:45;;;;;;;1.65;0.50;;;20.70;69.70;;;;;;7400487;19;19923;-61
2023/06/01 07:15:14;;;;;;;2.85;0.75;;;20.70;69.60;;;;;;7401723;19;19923;-61
2023/06/01 07:17:42;;;;;;;2.08;0.50;;;20.60;69.60;;;;;;7397342;19;19926;-61
2023/06/01 07:20:13;;;;;;;1.35;0.60;;;20.60;70.20;;;;;;7395764;19;19922;-61
2023/06/01 07:22:45;;;;;;;1.73;0.40;;;20.60;69.70;;;;;;7400100;19;19915;-61
2023/06/01 07:25:14;;;;;;;2.15;0.50;;;20.60;69.60;;;;;;7401045;19;19918;-61
2023/06/01 07:27:43;;;;;;;2.40;0.50;;;20.60;69.60;;;;;;7399194;19;19926;-61
2023/06/01 07:30:13;;;;;;;1.63;0.60;;;20.70;69.70;;;;;;7395812;19;19922;-61
2023/06/01 07:32:42;;;;;;;1.83;0.43;;;20.70;69.60;;;;;;7395436;19;20340;-60
2023/06/01 07:35:12;;;;;;;1.42;0.50;;;20.60;69.50;;;;;;7398331;19;19926;-61
2023/06/01 07:37:43;;;;;;;2.08;0.70;;;20.70;69.60;;;;;;7400957;19;19942;-61
2023/06/01 07:40:14;;;;;;;2.00;0.60;;;20.70;69.60;;;;;;7400930;19;20539;-61
2023/06/01 07:42:43;;;;;;;1.60;0.52;;;20.60;69.50;;;;;;7400480;19;19918;-61
2023/06/01 07:45:13;;;;;;;2.00;0.73;;;20.70;69.60;;;;;;7400156;19;19919;-60
2023/06/01 07:47:42;;;;;;;2.10;0.73;;;20.60;69.60;;;;;;7400041;19;19926;-61
2023/06/01 07:50:11;;;;;;;2.28;0.50;;;20.70;69.60;;;;;;7398286;19;20376;-61
2023/06/01 07:52:41;;;;;;;1.75;0.47;;;20.70;69.50;;;;;;7398117;19;19918;-61
2023/06/01 07:55:15;;;;;;;1.40;0.32;;;20.70;69.60;;;;;;7398805;19;19915;-61
2023/06/01 07:57:44;;;;;;;1.40;0.50;;;20.70;69.50;;;;;;7399606;19;20026;-61
2023/06/01 08:00:17;;;;;;;1.60;0.57;;;20.70;69.50;;;;;;7395901;19;19938;-61
2023/06/01 08:02:46;;;;;;;1.70;0.43;;;20.70;69.50;;;;;;7400542;19;19923;-61
2023/06/01 08:05:18;;;;;;;1.70;0.63;;;20.60;69.50;;;;;;7397982;19;20595;-61
2023/06/01 08:07:48;;;;;;;1.33;0.52;;;20.70;69.60;;;;;;7399821;19;19929;-61
2023/06/01 08:10:20;;;;;;;2.05;0.60;;;20.70;69.60;;;;;;7400420;19;19970;-61
2023/06/01 08:12:50;;;;;;;1.88;0.47;;;20.60;69.60;;;;;;7400582;19;20331;-61
2023/06/01 08:15:20;;;;;;;;;;;20.60;69.70;;;;;;7401944;19;19926;-61
2023/06/01 08:17:49;;;;;;;2.15;0.70;;;20.60;69.70;;;;;;7396987;19;19926;-61
2023/06/01 08:20:21;;;;;;;1.35;0.30;;;20.70;69.70;;;;;;7399337;19;20650;-61
2023/06/01 08:22:50;;;;;;;1.48;0.50;;;20.60;69.60;;;;;;7398322;19;19925;-62
2023/06/01 08:25:22;;;;;;;1.73;0.43;;;20.70;69.60;;;;;;7398230;19;19923;-61
2023/06/01 08:27:52;;;;;;;1.38;0.40;;;20.60;69.60;;;;;;7396338;19;19922;-61
2023/06/01 08:30:22;;;;;;;1.80;0.40;;;20.70;69.60;;;;;;7400435;19;19939;-61
2023/06/01 08:32:51;;;;;;;2.10;0.65;;;20.70;69.70;;;;;;7402724;19;19929;-62
2023/06/01 08:35:21;;;;;;;1.92;0.40;;;20.70;69.60;;;;;;7405689;19;19927;-62
2023/06/01 08:37:50;;;;;;;;;;;20.70;69.60;;;;;;7406796;19;19911;-61
2023/06/01 08:40:22;;;;;;;2.55;0.60;;;20.70;69.50;;;;;;7404926;19;19923;-61
2023/06/01 08:43:00;;;;;;;1.77;0.50;;;20.70;69.50;;;;;;7391999;19;19952;-75
2023/06/01 08:45:31;;;;;;;1.50;0.40;;;20.60;69.40;;;;;;7406260;19;20317;-75
2023/06/01 08:48:01;;;;;;;1.52;0.50;;;20.70;70.00;;;;;;7408641;19;19935;-75
2023/06/01 08:50:31;;;;;;;2.22;0.57;;;20.70;69.50;;;;;;7404315;19;19993;-75
2023/06/01 08:53:02;;;;;;;1.77;0.52;;;20.70;69.50;;;;;;7404582;19;19956;-75
2023/06/01 08:55:34;;;;;;;2.72;0.60;;;20.70;69.50;;;;;;7404466;19;20276;-75
2023/06/01 08:58:03;;;;;;;2.03;0.52;;;20.70;69.50;;;;;;7404528;19;20269;-75
2023/06/01 09:00:34;;;;;;;1.85;0.60;;;20.70;69.50;;;;;;7400643;19;20305;-75
2023/06/01 09:03:03;;;;;;;2.53;0.77;;;20.70;69.50;;;;;;7406271;19;19923;-75
2023/06/01 09:05:32;;;;;;;;;;;20.70;69.60;;;;;;7408550;19;19985;-75
2023/06/01 09:08:01;;;;;;;2.03;0.38;;;20.70;69.60;;;;;;7406959;19;20396;-75
2023/06/01 09:10:30;;;;;;;2.00;0.63;;;20.70;69.50;;;;;;7405112;19;20372;-75
2023/06/01 09:13:03;;;;;;;2.03;0.50;;;20.70;69.40;;;;;;7404753;19;19942;-75
2023/06/01 09:15:32;;;;;;;1.75;0.50;;;20.70;69.50;;;;;;7405119;19;19948;-75
2023/06/01 09:18:10;;;;;;;2.65;0.60;;;20.70;69.40;;;;;;7405833;19;19978;-75
2023/06/01 09:20:40;;;;;;;1.42;0.50;;;20.70;69.40;;;;;;7403573;19;19922;-74
2023/06/01 09:23:10;;;;;;;1.98;0.80;;;20.70;69.40;;;;;;7406216;19;19937;-75
2023/06/01 09:25:39;;;;;;;1.83;0.75;;;20.70;69.40;;;;;;7403394;19;19926;-75
2023/06/01 09:28:10;;;;;;;1.50;0.47;;;20.80;69.40;;;;;;7405091;19;19926;-75
2023/06/01 09:30:42;;;;;;;1.58;0.45;;;20.80;69.40;;;;;;7402816;19;19935;-75
2023/06/01 09:33:15;;;;;;;1.77;0.45;;;20.80;69.30;;;;;;7402231;19;19943;-75
2023/06/01 09:35:46;;;;;;;1.63;0.43;;;20.80;69.30;;;;;;7404677;19;20639;-75
2023/06/01 09:38:24;;;;;;;1.63;0.63;;;20.80;69.30;;;;;;7403520;19;20393;-75
2023/06/01 09:41:00;;;;;;;1.35;0.30;;;20.80;69.20;;;;;;7400715;19;20391;-75
2023/06/01 09:43:36;;;;;;;1.38;0.60;;;20.80;69.20;;;;;;7398918;19;19925;-75
2023/06/01 09:46:10;;;;;;;1.38;0.47;;;20.80;69.20;;;;;;7403389;19;19919;-75
2023/06/01 09:48:39;;;;;;;1.27;0.40;;;20.90;69.20;;;;;;7401156;19;19928;-75
2023/06/01 09:51:28;;;;;;;2.22;0.40;;;20.80;69.20;;;;;;7404106;19;19919;-75
2023/06/01 09:53:57;;;;;;;1.27;0.55;;;20.90;69.10;;;;;;7404435;19;19926;-75
2023/06/01 09:56:26;;;;;;;1.70;0.60;;;20.90;69.10;;;;;;7403213;19;20323;-75
2023/06/01 09:59:02;;;;;;;1.50;0.40;;;20.90;69.10;;;;;;7404383;19;19940;-75
2023/06/01 10:01:33;;;;;;;1.90;0.52;;;20.90;69.00;;;;;;7400350;19;19923;-75
2023/06/01 10:04:03;;;;;;;2.03;0.60;;;20.90;69.00;;;;;;7405597;19;19978;-73
2023/06/01 10:06:36;;;;;;;2.22;0.50;;;20.90;69.70;;;;;;7367644;19;19923;-73
2023/06/01 10:09:07;;;;;;;1.30;0.50;;;20.90;69.10;;;;;;7375611;19;19950;-74
2023/06/01 10:11:36;;;;;;;1.58;0.40;;;20.90;69.10;;;;;;7367579;19;20362;-74
2023/06/01 10:14:08;;;;;;;1.83;0.70;;;20.90;69.10;;;;;;7374405;19;19982;-75
2023/06/01 10:16:40;;;;;;;1.13;0.40;;;20.90;69.10;;;;;;7376723;19;19931;-75
2023/06/01 10:19:10;;;;;;;2.25;0.43;;;20.90;69.10;;;;;;7373226;19;20026;-74
2023/06/01 10:21:39;;;;;;;2.58;0.40;;;20.90;69.20;;;;;;7372273;19;19922;-74
2023/06/01 10:24:09;;;;;;;1.85;0.73;;;20.90;69.30;;;;;;7369954;19;19923;-75
2023/06/01 10:26:44;;;;;;;2.08;0.52;;;20.90;69.20;;;;;;7375151;19;20693;-76
2023/06/01 10:29:19;;;;;;;2.30;0.90;;;20.90;69.30;;;;;;7374972;19;19948;-76
2023/06/01 10:31:49;;;;;;;;;;;20.90;69.30;;;;;;7378278;19;19922;-76
2023/06/01 10:34:18;;;;;;;2.85;0.38;;;21.00;69.40;;;;;;7374667;19;19922;-74
2023/06/01 10:37:17;;;;;;;1.33;0.30;;;21.00;69.40;;;;;;7375279;19;20264;-75
2023/06/01 10:39:47;;;;;;;2.65;0.60;;;21.00;69.40;;;;;;7376101;19;19926;-75
2023/06/01 10:42:40;;;;;;;3.30;0.73;;;21.10;69.40;;;;;;7370946;19;20639;-75
2023/06/01 10:45:40;;;;;;;3.03;1.00;;;21.10;69.30;;;;;;7376007;19;19918;-75
2023/06/01 10:48:11;;;;;;;1.98;0.52;;;21.10;69.10;;;;;;7374762;19;19929;-75
2023/06/01 10:50:41;;;;;;;1.98;0.43;;;21.10;69.80;;;;;;7372456;19;20360;-74
2023/06/01 10:53:31;;;;;;;1.92;0.35;;;21.10;69.10;;;;;;7372184;19;19918;-74
2023/06/01 10:56:23;;;;;;;1.88;0.45;;;21.20;69.70;;;;;;7392581;19;19931;-74
2023/06/01 10:59:13;;;;;;;1.33;0.40;;;21.10;69.10;;;;;;7400857;19;20274;-75
2023/06/01 11:01:46;;;;;;;1.70;0.60;;;21.20;69.10;;;;;;7400850;19;19919;-75
2023/06/01 11:04:16;;;;;;;1.60;0.52;;;21.20;69.10;;;;;;7400704;19;20313;-74
2023/06/01 11:06:45;;;;;;;1.50;0.43;;;21.30;69.10;;;;;;7398979;19;20467;-74
2023/06/01 11:09:16;;;;;;;;;;;21.30;69.10;;;;;;7403356;19;19930;-74
2023/06/01 11:12:03;;;;;;;1.73;0.77;;;21.30;69.00;;;;;;7399073;19;19922;-74
2023/06/01 11:14:33;;;;;;;2.13;0.75;;;21.30;69.00;;;;;;7398995;19;19926;-74
2023/06/01 11:17:32;;;;;;;1.40;0.52;;;21.30;69.00;;;;;;7400357;19;19978;-74
2023/06/01 11:20:11;;;;;;;2.47;0.43;;;21.30;69.00;;;;;;7398520;19;19943;-74
2023/06/01 11:22:40;;;;;;;1.70;0.60;;;21.30;69.10;;;;;;7395823;19;20286;-74
2023/06/01 11:25:11;;;;;;;2.28;0.60;;;21.30;69.00;;;;;;7400876;19;19926;-74
2023/06/01 11:27:46;;;;;;;2.58;0.68;;;21.30;69.00;;;;;;7393580;19;19985;-76
2023/06/01 11:30:22;;;;;;;1.80;0.70;;;21.30;69.00;;;;;;7394359;19;19943;-76
2023/06/01 11:32:57;;;;;;;1.75;0.70;;;21.30;69.00;;;;;;7399102;19;19982;-76
2023/06/01 11:35:26;;;;;;;2.20;0.50;;;21.30;69.00;;;;;;7400990;19;19933;-76
2023/06/01 11:37:57;;;;;;;1.88;0.40;;;21.30;69.00;;;;;;7401274;19;19920;-76
2023/06/01 11:40:28;;;;;;;1.55;0.55;;;21.30;69.10;;;;;;7400200;19;20279;-76
2023/06/01 11:42:57;;;;;;;1.88;0.57;;;21.30;69.00;;;;;;7399045;19;19957;-76
2023/06/01 11:45:28;;;;;;;2.65;0.55;;;21.30;69.10;;;;;;7402210;19;19978;-76
2023/06/01 11:48:00;;;;;;;1.95;0.50;;;21.30;69.00;;;;;;7401969;19;19919;-76
2023/06/01 11:50:31;;;;;;;1.90;0.50;;;21.30;69.10;;;;;;7401761;19;19927;-76
2023/06/01 11:53:03;;;;;;;2.00;0.50;;;21.30;69.00;;;;;;7400992;19;20002;-76
2023/06/01 11:55:32;;;;;;;3.30;0.60;;;21.30;69.00;;;;;;7400645;19;19922;-76
2023/06/01 11:58:01;;;;;;;1.95;0.63;;;21.30;69.10;;;;;;7398135;19;19930;-76
2023/06/01 12:00:31;;;;;;;2.40;0.77;;;21.30;69.10;;;;;;7399700;19;19927;-76
2023/06/01 12:03:12;;;;;;;2.40;0.73;;;21.30;69.10;;;;;;7399172;19;19926;-77
2023/06/01 12:05:44;;;;;;;2.03;0.70;;;21.20;69.10;;;;;;7399957;19;19979;-76
2023/06/01 12:08:16;;;;;;;2.25;0.50;;;21.20;69.00;;;;;;7406267;19;19927;-76
2023/06/01 12:10:47;;;;;;;1.65;0.50;;;21.30;69.10;;;;;;7403076;19;19978;-77
2023/06/01 12:13:17;;;;;;;2.58;0.47;;;21.30;69.10;;;;;;7406598;19;19926;-76
2023/06/01 12:15:46;;;;;;;1.40;0.40;;;21.30;69.00;;;;;;7406518;19;19936;-76
2023/06/01 12:18:31;;;;;;;2.20;0.88;;;21.30;69.10;;;;;;7407264;19;19927;-77
2023/06/01 12:21:00;;;;;;;1.83;0.55;;;21.30;69.10;;;;;;7405741;19;19922;-76
2023/06/01 12:23:29;;;;;;;4.10;0.60;;;21.20;69.00;;;;;;7406478;19;19927;-77
2023/06/01 12:26:00;;;;;;;1.90;0.50;;;21.20;69.00;;;;;;7407360;19;19951;-76
2023/06/01 12:28:31;;;;;;;1.95;0.45;;;21.20;69.00;;;;;;7405266;19;19939;-76
2023/06/01 12:31:15;;;;;;;1.98;0.85;;;21.20;69.00;;;;;;7405558;19;19937;-76
2023/06/01 12:33:48;;;;;;;3.72;0.65;;;21.20;69.00;;;;;;7403507;19;19922;-76
2023/06/01 12:36:32;;;;;;;1.95;0.55;;;21.20;69.00;;;;;;7406620;19;19943;-77
2023/06/01 12:39:03;;;;;;;1.23;0.50;;;21.20;69.00;;;;;;7407176;19;19927;-76
2023/06/01 12:41:32;;;;;;;1.42;0.45;;;21.20;69.00;;;;;;7403818;19;19923;-76
2023/06/01 12:44:01;;;;;;;1.38;0.40;;;21.20;69.00;;;;;;7405101;19;20325;-76
2023/06/01 12:46:33;;;;;;;1.40;0.40;;;21.20;69.00;;;;;;7405053;19;19923;-76
2023/06/01 12:49:19;;;;;;;2.65;0.75;;;21.20;69.00;;;;;;7404008;19;19926;-77
2023/06/01 12:51:48;;;;;;;1.20;0.40;;;21.20;69.00;;;;;;7405923;19;20388;-76
2023/06/01 12:54:17;;;;;;;2.13;0.52;;;21.20;69.00;;;;;;7405386;19;19922;-76
2023/06/01 12:56:47;;;;;;;1.35;0.57;;;21.20;69.00;;;;;;7404354;19;19919;-77
2023/06/01 12:59:16;;;;;;;2.22;0.57;;;21.20;69.00;;;;;;7405117;19;20010;-76
2023/06/01 13:01:45;;;;;;;;;;;21.20;69.00;;;;;;7408210;19;20001;-76
2023/06/01 13:04:17;;;;;;;1.85;0.50;;;21.20;69.00;;;;;;7403876;19;19925;-77
2023/06/01 13:06:45;;;;;;;1.63;0.52;;;21.20;69.00;;;;;;7406804;19;19982;-76
2023/06/01 13:09:15;;;;;;;1.50;0.50;;;21.20;69.00;;;;;;7406813;19;19978;-76